CheckWX is a tool to help pilots better visualize weather data.  It is not intended as a substitute for an official pre-flight weather briefing.

03:50:41 UTC

CYLH METAR
Lansdowne House Airport
Lansdowne House, Canada
Current

51 mins ago

CYLH 270300Z AUTO 01005KT 9SM CLR 04/M03 A3020 RMK SLP240
Observed
May-27 @ 03:00 UTC
Wind
  • 010° at 5 KTS
Visibility
9 SM
Flight Rules
VFR
Cloud Levels
  • Clear skies
Temperature
C / 39°F
Dewpoint
-3°C / 27°F
Humidity
61%
Altimeter
30.2" Hg
Pressure
1022.72 hPa
Previous

2 hours ago

CYLH 270200Z AUTO 35004KT 9SM CLR 05/M03 A3019 RMK SLP238
Observed
May-27 @ 02:00 UTC
Wind
  • 350° at 4 KTS
Visibility
9 SM
Flight Rules
VFR
Cloud Levels
  • Clear skies
Temperature
C / 41°F
Dewpoint
-3°C / 27°F
Humidity
57%
Altimeter
30.19" Hg
Pressure
1022.32 hPa
Previous

3 hours ago

CYLH 270100Z AUTO 36006KT 330V030 9SM CLR 07/M03 A3017 RMK SLP233
Observed
May-27 @ 01:00 UTC
Wind
  • 360° at 6 KTS
Visibility
9 SM
Flight Rules
VFR
Cloud Levels
  • Clear skies
Temperature
C / 45°F
Dewpoint
-3°C / 27°F
Humidity
49%
Altimeter
30.17" Hg
Pressure
1021.72 hPa